createdAt,value
2017-08-06T00:00:18.726Z,0
2017-08-06T00:01:20.146Z,0
2017-08-06T00:02:21.573Z,0
2017-08-06T00:03:23.008Z,0
2017-08-06T00:04:24.429Z,0
2017-08-06T00:05:25.853Z,0
2017-08-06T00:06:27.271Z,0
2017-08-06T00:07:28.696Z,0
2017-08-06T00:08:30.132Z,0
2017-08-06T00:09:31.555Z,0
2017-08-06T00:10:33.049Z,0
2017-08-06T00:11:34.468Z,0
2017-08-06T00:12:35.896Z,0
2017-08-06T00:13:37.321Z,0
2017-08-06T00:14:38.761Z,0
2017-08-06T00:15:40.229Z,0
2017-08-06T00:16:41.664Z,0
2017-08-06T00:17:43.089Z,0
2017-08-06T00:18:44.531Z,0
2017-08-06T00:19:45.969Z,0
2017-08-06T00:20:47.386Z,0
2017-08-06T00:21:48.878Z,0
2017-08-06T00:22:50.306Z,0
2017-08-06T00:23:51.731Z,0
2017-08-06T00:24:53.157Z,0
2017-08-06T00:25:54.587Z,0
2017-08-06T00:26:56.020Z,0
2017-08-06T00:27:57.439Z,0
2017-08-06T00:28:58.873Z,0
2017-08-06T00:30:00.298Z,0
2017-08-06T00:31:01.731Z,0
2017-08-06T00:32:03.159Z,0
2017-08-06T00:33:04.584Z,0
2017-08-06T00:34:06.012Z,0
2017-08-06T00:35:07.431Z,0
2017-08-06T00:36:08.863Z,0
2017-08-06T00:37:10.277Z,0
2017-08-06T00:38:11.708Z,0
2017-08-06T00:39:13.123Z,0
2017-08-06T00:40:14.549Z,0
2017-08-06T00:41:15.979Z,0
2017-08-06T00:42:17.401Z,0
2017-08-06T00:43:18.831Z,0
2017-08-06T00:44:20.253Z,0
2017-08-06T00:45:21.678Z,0
2017-08-06T00:46:23.108Z,0
2017-08-06T00:47:24.540Z,0
2017-08-06T00:48:25.964Z,0
2017-08-06T00:49:27.380Z,0
2017-08-06T00:50:28.807Z,0
2017-08-06T00:51:30.230Z,0
2017-08-06T00:52:31.653Z,0
2017-08-06T00:53:33.080Z,0
2017-08-06T00:54:34.509Z,0
2017-08-06T00:55:35.933Z,0
2017-08-06T00:56:37.362Z,0
2017-08-06T00:57:38.780Z,0
2017-08-06T00:58:40.209Z,0
2017-08-06T00:59:41.629Z,0
2017-08-06T01:00:43.049Z,0
2017-08-06T01:01:44.475Z,0
2017-08-06T01:02:45.910Z,0
2017-08-06T01:03:47.333Z,0
2017-08-06T01:04:48.760Z,0
2017-08-06T01:05:50.179Z,0
2017-08-06T01:06:51.599Z,0
2017-08-06T01:07:53.024Z,0
2017-08-06T01:08:54.447Z,0
2017-08-06T01:09:55.876Z,0
2017-08-06T01:10:57.305Z,0
2017-08-06T01:11:58.731Z,0
2017-08-06T01:13:00.163Z,0
2017-08-06T01:14:01.592Z,0
2017-08-06T01:15:03.026Z,0
2017-08-06T01:16:04.453Z,0
2017-08-06T01:17:05.878Z,0
2017-08-06T01:18:07.316Z,0
2017-08-06T01:19:08.742Z,0
2017-08-06T01:20:10.159Z,0
2017-08-06T01:21:11.588Z,0
2017-08-06T01:22:13.012Z,0
2017-08-06T01:23:14.563Z,0
2017-08-06T01:24:15.991Z,0
2017-08-06T01:25:17.415Z,0
2017-08-06T01:26:18.911Z,0
2017-08-06T01:27:20.332Z,0
2017-08-06T01:28:21.758Z,0
2017-08-06T01:29:23.181Z,0
2017-08-06T01:30:24.608Z,0
2017-08-06T01:31:26.027Z,0
2017-08-06T01:32:27.455Z,0
2017-08-06T01:33:28.876Z,0
2017-08-06T01:34:30.309Z,0
2017-08-06T01:35:31.736Z,0
2017-08-06T01:36:33.158Z,0
2017-08-06T01:37:34.589Z,0
2017-08-06T01:38:36.014Z,0
2017-08-06T01:39:37.438Z,0
2017-08-06T01:40:38.869Z,0
2017-08-06T01:41:40.285Z,0
2017-08-06T01:42:41.714Z,0
2017-08-06T01:43:43.134Z,0
2017-08-06T01:44:44.559Z,0
2017-08-06T01:45:45.989Z,0
2017-08-06T01:46:47.408Z,0
2017-08-06T01:47:48.832Z,0
2017-08-06T01:48:50.255Z,0
2017-08-06T01:49:51.687Z,0
2017-08-06T01:50:53.106Z,0
2017-08-06T01:51:54.528Z,0
2017-08-06T01:52:55.952Z,0
2017-08-06T01:53:57.370Z,0
2017-08-06T01:54:58.791Z,0
2017-08-06T01:56:00.210Z,0
2017-08-06T01:57:01.634Z,0
2017-08-06T01:58:03.052Z,0
2017-08-06T01:59:04.476Z,0
2017-08-06T02:00:05.892Z,0
2017-08-06T02:01:07.314Z,0
2017-08-06T02:02:08.742Z,0
2017-08-06T02:03:10.162Z,0
2017-08-06T02:04:11.586Z,0
2017-08-06T02:05:13.020Z,0
2017-08-06T02:06:14.440Z,0
2017-08-06T02:07:15.871Z,0
2017-08-06T02:08:17.291Z,0
2017-08-06T02:09:18.722Z,0
2017-08-06T02:10:20.144Z,0
2017-08-06T02:11:21.567Z,0
2017-08-06T02:12:22.999Z,0
2017-08-06T02:13:24.420Z,0
2017-08-06T02:14:25.839Z,0
2017-08-06T02:15:27.261Z,0
2017-08-06T02:16:28.682Z,0
2017-08-06T02:17:30.105Z,0
2017-08-06T02:18:31.536Z,0
2017-08-06T02:19:33.010Z,0
2017-08-06T02:20:34.426Z,0
2017-08-06T02:21:35.857Z,0
2017-08-06T02:22:37.342Z,0
2017-08-06T02:23:38.771Z,0
2017-08-06T02:24:40.192Z,0
2017-08-06T02:25:41.622Z,0
2017-08-06T02:26:43.127Z,0
2017-08-06T02:27:44.545Z,0
2017-08-06T02:28:45.966Z,0
2017-08-06T02:29:47.392Z,0
2017-08-06T02:30:48.818Z,0
2017-08-06T02:31:50.243Z,0
2017-08-06T02:32:51.681Z,0
2017-08-06T02:33:53.109Z,0
2017-08-06T02:34:54.536Z,0
2017-08-06T02:35:55.957Z,0
2017-08-06T02:36:57.389Z,0
2017-08-06T02:37:58.816Z,0
2017-08-06T02:39:00.245Z,0
2017-08-06T02:40:01.676Z,0
2017-08-06T02:41:03.097Z,0
2017-08-06T02:42:04.515Z,0
2017-08-06T02:43:05.939Z,0
2017-08-06T02:44:07.367Z,0
2017-08-06T02:45:08.790Z,0
2017-08-06T02:46:10.214Z,0
2017-08-06T02:47:11.636Z,0
2017-08-06T02:48:13.061Z,0
2017-08-06T02:49:14.488Z,0
2017-08-06T02:50:15.905Z,0
2017-08-06T02:51:17.329Z,0
2017-08-06T02:52:18.750Z,0
2017-08-06T02:53:20.181Z,0
2017-08-06T02:54:21.597Z,0
2017-08-06T02:55:23.026Z,0
2017-08-06T02:56:24.451Z,0
2017-08-06T02:57:25.867Z,0
2017-08-06T02:58:27.308Z,0
2017-08-06T02:59:28.729Z,0
2017-08-06T03:00:30.155Z,0
2017-08-06T03:01:31.581Z,0
2017-08-06T03:02:33.002Z,0
2017-08-06T03:03:34.428Z,0
2017-08-06T03:04:35.847Z,0
2017-08-06T03:05:37.277Z,0
2017-08-06T03:06:38.696Z,0
2017-08-06T03:07:40.119Z,0
2017-08-06T03:08:41.543Z,0
2017-08-06T03:09:42.967Z,0
2017-08-06T03:10:44.389Z,0
2017-08-06T03:11:45.810Z,0
2017-08-06T03:12:47.229Z,0
2017-08-06T03:13:48.656Z,0
2017-08-06T03:14:50.075Z,0
2017-08-06T03:15:51.495Z,0
2017-08-06T03:16:52.913Z,0
2017-08-06T03:17:54.338Z,0
2017-08-06T03:18:55.769Z,0
2017-08-06T03:19:57.187Z,0
2017-08-06T03:20:58.608Z,0
2017-08-06T03:22:00.028Z,0
2017-08-06T03:23:01.450Z,0
2017-08-06T03:24:02.978Z,0
2017-08-06T03:25:04.398Z,0
2017-08-06T03:26:05.825Z,0
2017-08-06T03:27:07.257Z,0
2017-08-06T03:28:08.729Z,0
2017-08-06T03:29:10.150Z,0
2017-08-06T03:30:11.571Z,0
2017-08-06T03:31:13.001Z,0
2017-08-06T03:32:14.423Z,0
2017-08-06T03:33:15.848Z,0
2017-08-06T03:34:17.265Z,0
2017-08-06T03:35:18.696Z,0
2017-08-06T03:36:20.117Z,4
2017-08-06T03:37:21.551Z,4
2017-08-06T03:38:22.968Z,0
2017-08-06T03:39:24.413Z,0
2017-08-06T03:40:25.826Z,4
2017-08-06T03:41:27.245Z,0
2017-08-06T03:42:28.671Z,4
2017-08-06T03:43:30.096Z,4
2017-08-06T03:44:31.531Z,4
2017-08-06T03:45:32.949Z,4
2017-08-06T03:46:34.370Z,4
2017-08-06T03:47:35.791Z,8
2017-08-06T03:48:37.211Z,8
2017-08-06T03:49:38.635Z,8
2017-08-06T03:50:40.060Z,8
2017-08-06T03:51:41.483Z,8
2017-08-06T03:52:42.911Z,12
2017-08-06T03:53:44.338Z,12
2017-08-06T03:54:45.760Z,16
2017-08-06T03:55:47.179Z,16
2017-08-06T03:56:48.601Z,20
2017-08-06T03:57:50.032Z,16
2017-08-06T03:58:51.461Z,20
2017-08-06T03:59:52.884Z,24
2017-08-06T04:00:54.307Z,24
2017-08-06T04:01:55.727Z,28
2017-08-06T04:02:57.155Z,32
2017-08-06T04:03:58.576Z,32
2017-08-06T04:04:59.998Z,36
2017-08-06T04:06:01.422Z,40
2017-08-06T04:07:02.855Z,44
2017-08-06T04:08:04.278Z,48
2017-08-06T04:09:05.699Z,48
2017-08-06T04:10:07.124Z,52
2017-08-06T04:11:08.550Z,60
2017-08-06T04:12:09.975Z,60
2017-08-06T04:13:11.399Z,64
2017-08-06T04:14:12.820Z,68
2017-08-06T04:15:14.242Z,72
2017-08-06T04:16:15.669Z,80
2017-08-06T04:17:17.104Z,80
2017-08-06T04:18:18.529Z,84
2017-08-06T04:19:19.950Z,88
2017-08-06T04:20:21.378Z,96
2017-08-06T04:21:22.802Z,100
2017-08-06T04:22:24.227Z,104
2017-08-06T04:23:25.647Z,108
2017-08-06T04:24:27.075Z,112
2017-08-06T04:25:28.494Z,116
2017-08-06T04:26:29.920Z,124
2017-08-06T04:27:31.341Z,128
2017-08-06T04:28:32.769Z,132
2017-08-06T04:29:34.195Z,132
2017-08-06T04:30:35.623Z,140
2017-08-06T04:31:37.047Z,144
2017-08-06T04:32:38.471Z,152
2017-08-06T04:33:39.900Z,156
2017-08-06T04:34:41.324Z,160
2017-08-06T04:35:42.750Z,168
2017-08-06T04:36:44.176Z,172
2017-08-06T04:37:45.600Z,176
2017-08-06T04:38:47.026Z,180
2017-08-06T04:39:48.456Z,184
2017-08-06T04:40:49.878Z,192
2017-08-06T04:41:51.306Z,196
2017-08-06T04:42:52.731Z,204
2017-08-06T04:43:54.157Z,208
2017-08-06T04:44:55.583Z,212
2017-08-06T04:45:57.006Z,216
2017-08-06T04:46:58.432Z,220
2017-08-06T04:47:59.852Z,224
2017-08-06T04:49:01.279Z,228
2017-08-06T04:50:02.700Z,232
2017-08-06T04:51:04.128Z,236
2017-08-06T04:52:05.545Z,240
2017-08-06T04:53:06.974Z,248
2017-08-06T04:54:08.407Z,248
2017-08-06T04:55:09.825Z,256
2017-08-06T04:56:11.254Z,256
2017-08-06T04:57:12.674Z,264
2017-08-06T04:58:14.104Z,268
2017-08-06T04:59:15.526Z,272
2017-08-06T05:00:16.943Z,272
2017-08-06T05:01:18.373Z,276
2017-08-06T05:02:19.801Z,276
2017-08-06T05:03:21.219Z,284
2017-08-06T05:04:22.648Z,284
2017-08-06T05:05:24.073Z,288
2017-08-06T05:06:25.499Z,292
2017-08-06T05:07:26.935Z,292
2017-08-06T05:08:28.360Z,296
2017-08-06T05:09:29.783Z,300
2017-08-06T05:10:31.209Z,300
2017-08-06T05:11:32.639Z,304
2017-08-06T05:12:34.073Z,308
2017-08-06T05:13:35.502Z,308
2017-08-06T05:14:36.935Z,312
2017-08-06T05:15:38.363Z,316
2017-08-06T05:16:39.786Z,320
2017-08-06T05:17:41.221Z,320
2017-08-06T05:18:42.740Z,324
2017-08-06T05:19:44.165Z,324
2017-08-06T05:20:45.585Z,324
2017-08-06T05:21:47.041Z,328
2017-08-06T05:22:48.517Z,332
2017-08-06T05:23:49.942Z,328
2017-08-06T05:24:51.361Z,332
2017-08-06T05:25:52.882Z,336
2017-08-06T05:26:54.312Z,340
2017-08-06T05:27:55.733Z,340
2017-08-06T05:28:57.170Z,340
2017-08-06T05:29:58.604Z,340
2017-08-06T05:31:00.023Z,344
2017-08-06T05:32:01.466Z,348
2017-08-06T05:33:02.889Z,352
2017-08-06T05:34:04.315Z,348
2017-08-06T05:35:05.739Z,352
2017-08-06T05:36:07.164Z,352
2017-08-06T05:37:08.593Z,352
2017-08-06T05:38:10.024Z,356
2017-08-06T05:39:11.450Z,356
2017-08-06T05:40:12.878Z,360
2017-08-06T05:41:14.299Z,360
2017-08-06T05:42:15.719Z,364
2017-08-06T05:43:17.148Z,364
2017-08-06T05:44:18.570Z,364
2017-08-06T05:45:20.006Z,368
2017-08-06T05:46:21.424Z,372
2017-08-06T05:47:22.855Z,372
2017-08-06T05:48:24.279Z,372
2017-08-06T05:49:25.708Z,348
2017-08-06T05:50:27.130Z,376
2017-08-06T05:51:28.555Z,380
2017-08-06T05:52:29.982Z,380
2017-08-06T05:53:31.415Z,376
2017-08-06T05:54:32.839Z,380
2017-08-06T05:55:34.269Z,376
2017-08-06T05:56:35.686Z,380
2017-08-06T05:57:37.110Z,384
2017-08-06T05:58:38.533Z,380
2017-08-06T05:59:39.961Z,384
2017-08-06T06:00:41.384Z,384
2017-08-06T06:01:42.808Z,384
2017-08-06T06:02:44.232Z,380
2017-08-06T06:03:47.204Z,384
2017-08-06T06:04:49.354Z,384
2017-08-06T06:05:51.554Z,380
2017-08-06T06:06:53.885Z,388
2017-08-06T06:07:55.311Z,376
2017-08-06T06:08:57.678Z,388
2017-08-06T06:09:59.107Z,380
2017-08-06T06:11:00.528Z,384
2017-08-06T06:12:01.953Z,384
2017-08-06T06:13:03.383Z,388
2017-08-06T06:14:05.691Z,384
2017-08-06T06:15:07.124Z,384
2017-08-06T06:16:08.556Z,384
2017-08-06T06:17:09.984Z,388
2017-08-06T06:18:11.420Z,388
2017-08-06T06:19:12.842Z,388
2017-08-06T06:20:14.272Z,392
2017-08-06T06:21:15.699Z,392
2017-08-06T06:22:17.154Z,396
2017-08-06T06:23:18.659Z,396
2017-08-06T06:24:20.062Z,404
2017-08-06T06:25:21.488Z,412
2017-08-06T06:26:22.916Z,416
2017-08-06T06:27:24.361Z,412
2017-08-06T06:28:25.784Z,412
2017-08-06T06:29:27.305Z,416
2017-08-06T06:30:28.775Z,416
2017-08-06T06:31:30.210Z,412
2017-08-06T06:32:31.644Z,420
2017-08-06T06:33:33.101Z,416
2017-08-06T06:34:34.525Z,424
2017-08-06T06:35:35.949Z,424
2017-08-06T06:36:38.140Z,424
2017-08-06T06:37:40.337Z,424
2017-08-06T06:38:41.763Z,424
2017-08-06T06:39:43.188Z,428
2017-08-06T06:40:44.623Z,436
2017-08-06T06:41:46.042Z,448
2017-08-06T06:42:47.466Z,448
2017-08-06T06:43:48.904Z,440
2017-08-06T06:44:50.327Z,428
2017-08-06T06:45:51.748Z,416
2017-08-06T06:46:53.176Z,444
2017-08-06T06:47:54.602Z,452
2017-08-06T06:48:56.030Z,460
2017-08-06T06:49:57.455Z,456
2017-08-06T06:50:58.879Z,464
2017-08-06T06:52:00.311Z,460
2017-08-06T06:53:02.490Z,472
2017-08-06T06:54:03.921Z,480
2017-08-06T06:55:05.359Z,484
2017-08-06T06:56:06.785Z,484
2017-08-06T06:57:08.211Z,488
2017-08-06T06:58:09.636Z,488
2017-08-06T06:59:11.889Z,496
2017-08-06T07:00:13.310Z,504
2017-08-06T07:01:14.740Z,508
2017-08-06T07:02:16.170Z,480
2017-08-06T07:03:17.593Z,524
2017-08-06T07:04:19.025Z,556
2017-08-06T07:05:20.458Z,532
2017-08-06T07:06:21.891Z,524
2017-08-06T07:07:24.123Z,572
2017-08-06T07:08:25.551Z,548
2017-08-06T07:09:26.978Z,580
2017-08-06T07:10:28.399Z,560
2017-08-06T07:11:30.620Z,596
2017-08-06T07:12:32.053Z,576
2017-08-06T07:13:33.487Z,572
2017-08-06T07:14:34.909Z,592
2017-08-06T07:15:36.327Z,628
2017-08-06T07:16:37.755Z,608
2017-08-06T07:17:39.184Z,596
2017-08-06T07:18:40.609Z,616
2017-08-06T07:19:42.033Z,656
2017-08-06T07:20:43.458Z,628
2017-08-06T07:21:45.572Z,656
2017-08-06T07:22:47.013Z,684
2017-08-06T07:23:48.440Z,668
2017-08-06T07:24:49.861Z,628
2017-08-06T07:25:51.291Z,628
2017-08-06T07:26:52.715Z,668
2017-08-06T07:27:54.153Z,724
2017-08-06T07:28:55.571Z,748
2017-08-06T07:29:57.001Z,712
2017-08-06T07:30:58.426Z,588
2017-08-06T07:31:59.851Z,768
2017-08-06T07:33:01.280Z,628
2017-08-06T07:34:02.724Z,680
2017-08-06T07:35:04.146Z,728
2017-08-06T07:36:05.582Z,848
2017-08-06T07:37:07.011Z,724
2017-08-06T07:38:08.437Z,620
2017-08-06T07:39:09.863Z,788
2017-08-06T07:40:11.295Z,920
2017-08-06T07:41:12.728Z,752
2017-08-06T07:42:14.149Z,800
2017-08-06T07:43:15.574Z,656
2017-08-06T07:44:17.002Z,820
2017-08-06T07:45:18.441Z,564
2017-08-06T07:46:19.879Z,552
2017-08-06T07:47:21.321Z,620
2017-08-06T07:48:22.754Z,740
2017-08-06T07:49:24.186Z,756
2017-08-06T07:50:25.639Z,968
2017-08-06T07:51:27.052Z,968
2017-08-06T07:52:28.491Z,772
2017-08-06T07:53:29.919Z,1100
2017-08-06T07:54:31.346Z,940
2017-08-06T07:55:32.773Z,892
2017-08-06T07:56:34.197Z,944
2017-08-06T07:57:35.621Z,996
2017-08-06T07:58:37.048Z,644
2017-08-06T07:59:38.484Z,840
2017-08-06T08:00:39.916Z,800
2017-08-06T08:01:41.341Z,864
2017-08-06T08:02:42.776Z,808
2017-08-06T08:03:44.205Z,920
2017-08-06T08:04:45.635Z,1048
2017-08-06T08:05:47.066Z,944
2017-08-06T08:06:48.500Z,904
2017-08-06T08:07:49.922Z,916
2017-08-06T08:08:51.356Z,796
2017-08-06T08:09:52.783Z,888
2017-08-06T08:10:54.212Z,920
2017-08-06T08:11:55.636Z,1008
2017-08-06T08:12:57.077Z,988
2017-08-06T08:13:58.512Z,984
2017-08-06T08:14:59.941Z,1040
2017-08-06T08:16:01.375Z,1096
2017-08-06T08:17:02.813Z,1148
2017-08-06T08:18:04.241Z,1232
2017-08-06T08:19:05.662Z,1268
2017-08-06T08:20:07.159Z,1316
2017-08-06T08:21:08.600Z,1228
2017-08-06T08:22:10.031Z,1152
2017-08-06T08:23:11.459Z,1256
2017-08-06T08:24:12.972Z,1316
2017-08-06T08:25:14.418Z,1328
2017-08-06T08:26:15.845Z,1012
2017-08-06T08:27:17.297Z,932
2017-08-06T08:28:18.723Z,820
2017-08-06T08:29:20.167Z,868
2017-08-06T08:30:21.600Z,940
2017-08-06T08:31:23.030Z,940
2017-08-06T08:32:24.462Z,988
2017-08-06T08:33:25.889Z,712
2017-08-06T08:34:27.323Z,904
2017-08-06T08:35:28.753Z,840
2017-08-06T08:36:30.178Z,892
2017-08-06T08:37:31.604Z,892
2017-08-06T08:38:33.029Z,904
2017-08-06T08:39:34.461Z,968
2017-08-06T08:40:35.898Z,1012
2017-08-06T08:41:37.326Z,1016
2017-08-06T08:42:38.754Z,1112
2017-08-06T08:43:40.182Z,1180
2017-08-06T08:44:41.610Z,1104
2017-08-06T08:45:43.042Z,1076
2017-08-06T08:46:44.469Z,1088
2017-08-06T08:47:45.895Z,1004
2017-08-06T08:48:47.330Z,932
2017-08-06T08:49:48.762Z,1036
2017-08-06T08:50:50.202Z,956
2017-08-06T08:51:51.634Z,884
2017-08-06T08:52:53.065Z,1056
2017-08-06T08:53:54.492Z,1132
2017-08-06T08:54:55.921Z,1196
2017-08-06T08:55:57.354Z,1248
2017-08-06T08:56:58.791Z,1304
2017-08-06T08:58:00.214Z,1252
2017-08-06T08:59:01.647Z,1416
2017-08-06T09:00:03.091Z,1468
2017-08-06T09:01:04.518Z,1236
2017-08-06T09:02:05.938Z,1144
2017-08-06T09:03:07.372Z,1096
2017-08-06T09:04:08.799Z,1032
2017-08-06T09:05:10.226Z,936
2017-08-06T09:06:11.650Z,980
2017-08-06T09:07:13.103Z,1012
2017-08-06T09:08:14.538Z,1076
2017-08-06T09:09:15.970Z,1120
2017-08-06T09:10:17.388Z,1164
2017-08-06T09:11:18.814Z,1124
2017-08-06T09:12:20.242Z,1264
2017-08-06T09:13:21.675Z,1304
2017-08-06T09:14:23.103Z,672
2017-08-06T09:15:24.541Z,1012
2017-08-06T09:16:25.970Z,760
2017-08-06T09:17:27.409Z,1268
2017-08-06T09:18:28.853Z,1304
2017-08-06T09:19:30.279Z,1340
2017-08-06T09:20:31.718Z,1340
2017-08-06T09:21:33.143Z,1364
2017-08-06T09:22:34.572Z,1380
2017-08-06T09:23:36.007Z,1492
2017-08-06T09:24:37.442Z,1568
2017-08-06T09:25:38.867Z,1532
2017-08-06T09:26:40.299Z,1364
2017-08-06T09:27:41.736Z,1236
2017-08-06T09:28:43.168Z,1500
2017-08-06T09:29:44.603Z,1480
2017-08-06T09:30:46.031Z,1476
2017-08-06T09:31:47.461Z,1696
2017-08-06T09:32:48.901Z,1788
2017-08-06T09:33:50.333Z,1868
2017-08-06T09:34:51.764Z,1936
2017-08-06T09:35:53.190Z,2032
2017-08-06T09:36:54.624Z,2152
2017-08-06T09:37:56.053Z,2164
2017-08-06T09:38:57.483Z,2020
2017-08-06T09:39:58.919Z,1816
2017-08-06T09:41:00.362Z,1600
2017-08-06T09:42:01.784Z,1436
2017-08-06T09:43:03.216Z,1324
2017-08-06T09:44:04.650Z,1272
2017-08-06T09:45:06.087Z,1480
2017-08-06T09:46:07.514Z,1484
2017-08-06T09:47:08.967Z,1824
2017-08-06T09:48:10.397Z,1920
2017-08-06T09:49:11.831Z,2048
2017-08-06T09:50:13.260Z,1952
2017-08-06T09:51:14.692Z,1900
2017-08-06T09:52:16.126Z,1696
2017-08-06T09:53:17.557Z,1612
2017-08-06T09:54:19.005Z,1836
2017-08-06T09:55:20.423Z,1736
2017-08-06T09:56:21.854Z,1692
2017-08-06T09:57:23.295Z,1404
2017-08-06T09:58:24.840Z,1564
2017-08-06T09:59:26.277Z,2004
2017-08-06T10:00:27.713Z,1756
2017-08-06T10:01:29.155Z,1572
2017-08-06T10:02:30.587Z,1544
2017-08-06T10:03:32.011Z,1580
2017-08-06T10:04:33.965Z,1820
2017-08-06T10:05:35.396Z,2376
2017-08-06T10:06:36.834Z,1872
2017-08-06T10:07:38.270Z,2036
2017-08-06T10:08:39.702Z,2060
2017-08-06T10:09:41.137Z,1768
2017-08-06T10:10:42.565Z,1552
2017-08-06T10:11:43.997Z,1632
2017-08-06T10:12:45.427Z,1696
2017-08-06T10:13:46.864Z,1612
2017-08-06T10:14:48.304Z,1636
2017-08-06T10:15:49.745Z,1684
2017-08-06T10:16:51.175Z,1680
2017-08-06T10:17:52.606Z,1756
2017-08-06T10:18:54.036Z,1884
2017-08-06T10:19:55.469Z,1904
2017-08-06T10:20:56.907Z,1964
2017-08-06T10:21:58.349Z,1964
2017-08-06T10:22:59.790Z,1832
2017-08-06T10:24:01.231Z,1860
2017-08-06T10:25:02.664Z,1932
2017-08-06T10:26:04.101Z,1644
2017-08-06T10:27:05.534Z,1452
2017-08-06T10:28:06.959Z,1708
2017-08-06T10:29:08.399Z,1700
2017-08-06T10:30:09.825Z,1696
2017-08-06T10:31:11.269Z,1664
2017-08-06T10:32:12.694Z,1676
2017-08-06T10:33:14.121Z,1728
2017-08-06T10:34:15.555Z,1732
2017-08-06T10:35:16.984Z,1416
2017-08-06T10:36:18.421Z,1396
2017-08-06T10:37:19.862Z,1868
2017-08-06T10:38:21.290Z,1988
2017-08-06T10:39:22.721Z,2108
2017-08-06T10:40:24.173Z,2168
2017-08-06T10:41:25.606Z,2232
2017-08-06T10:42:27.047Z,2276
2017-08-06T10:43:28.491Z,2364
2017-08-06T10:44:29.915Z,1764
2017-08-06T10:45:31.356Z,2428
2017-08-06T10:46:32.787Z,2172
2017-08-06T10:47:34.221Z,2340
2017-08-06T10:48:35.658Z,2180
2017-08-06T10:49:37.090Z,2648
2017-08-06T10:50:38.534Z,2856
2017-08-06T10:51:39.969Z,2780
2017-08-06T10:52:41.422Z,2808
2017-08-06T10:53:42.855Z,2992
2017-08-06T10:54:44.287Z,3048
2017-08-06T10:55:45.714Z,2984
2017-08-06T10:56:47.150Z,2960
2017-08-06T10:57:48.590Z,2176
2017-08-06T10:58:50.029Z,3044
2017-08-06T10:59:51.463Z,2600
2017-08-06T11:00:52.925Z,2492
2017-08-06T11:01:54.331Z,2392
2017-08-06T11:02:55.795Z,2392
2017-08-06T11:03:57.219Z,2688
2017-08-06T11:04:58.661Z,3072
2017-08-06T11:06:00.097Z,2856
2017-08-06T11:07:01.608Z,2772
2017-08-06T11:08:03.092Z,2864
2017-08-06T11:09:04.524Z,2896
2017-08-06T11:10:05.960Z,2876
2017-08-06T11:11:07.425Z,2820
2017-08-06T11:12:08.875Z,2872
2017-08-06T11:13:10.305Z,3008
2017-08-06T11:14:11.747Z,3088
2017-08-06T11:15:13.191Z,3364
2017-08-06T11:16:14.617Z,3192
2017-08-06T11:17:16.068Z,3284
2017-08-06T11:18:17.496Z,3484
2017-08-06T11:19:18.949Z,3160
2017-08-06T11:20:20.385Z,3240
2017-08-06T11:21:21.825Z,3288
2017-08-06T11:22:23.256Z,3136
2017-08-06T11:23:24.696Z,2848
2017-08-06T11:24:26.127Z,2584
2017-08-06T11:25:27.629Z,2388
2017-08-06T11:26:29.065Z,2288
2017-08-06T11:27:30.494Z,1364
2017-08-06T11:28:31.923Z,1408
2017-08-06T11:29:33.353Z,2132
2017-08-06T11:30:34.789Z,2904
2017-08-06T11:31:36.217Z,2804
2017-08-06T11:32:37.643Z,2672
2017-08-06T11:33:39.104Z,2556
2017-08-06T11:34:40.547Z,1336
2017-08-06T11:35:41.977Z,1404
2017-08-06T11:36:43.411Z,1420
2017-08-06T11:37:44.972Z,1616
2017-08-06T11:38:46.406Z,3012
2017-08-06T11:39:47.838Z,3152
2017-08-06T11:40:49.272Z,3148
2017-08-06T11:41:50.709Z,2876
2017-08-06T11:42:52.133Z,2860
2017-08-06T11:43:53.592Z,2820
2017-08-06T11:44:55.032Z,2740
2017-08-06T11:45:56.481Z,1544
2017-08-06T11:46:57.910Z,2316
2017-08-06T11:47:59.350Z,2764
2017-08-06T11:49:00.798Z,2960
2017-08-06T11:50:02.230Z,2924
2017-08-06T11:51:03.662Z,3012
2017-08-06T11:52:05.097Z,2368
2017-08-06T11:53:06.534Z,1708
2017-08-06T11:54:07.971Z,2336
2017-08-06T11:55:09.416Z,3024
2017-08-06T11:56:10.866Z,3052
2017-08-06T11:57:12.303Z,2920
2017-08-06T11:58:13.734Z,2880
2017-08-06T11:59:15.202Z,2956
2017-08-06T12:00:16.637Z,3000
2017-08-06T12:01:18.077Z,3088
2017-08-06T12:02:19.511Z,3340
2017-08-06T12:03:20.947Z,3632
2017-08-06T12:04:22.379Z,3864
2017-08-06T12:05:23.825Z,4128
2017-08-06T12:06:25.266Z,3768
2017-08-06T12:07:26.817Z,3268
2017-08-06T12:08:28.250Z,1692
2017-08-06T12:09:29.682Z,1640
2017-08-06T12:10:31.124Z,1640
2017-08-06T12:11:32.562Z,1796
2017-08-06T12:12:33.998Z,1868
2017-08-06T12:13:35.506Z,2596
2017-08-06T12:14:36.944Z,3164
2017-08-06T12:15:38.372Z,3040
2017-08-06T12:16:39.805Z,2984
2017-08-06T12:17:41.275Z,3060
2017-08-06T12:18:42.714Z,3236
2017-08-06T12:19:44.150Z,3412
2017-08-06T12:20:45.622Z,3504
2017-08-06T12:21:47.059Z,3448
2017-08-06T12:22:48.499Z,3424
2017-08-06T12:23:49.925Z,3364
2017-08-06T12:24:51.357Z,3336
2017-08-06T12:25:52.796Z,3436
2017-08-06T12:26:54.244Z,3344
2017-08-06T12:27:55.670Z,3232
2017-08-06T12:28:57.122Z,3116
2017-08-06T12:29:58.560Z,3404
2017-08-06T12:30:59.998Z,3140
2017-08-06T12:32:01.521Z,1816
2017-08-06T12:33:02.958Z,1540
2017-08-06T12:34:04.385Z,1604
2017-08-06T12:35:05.826Z,1744
2017-08-06T12:36:07.275Z,1724
2017-08-06T12:37:08.703Z,1672
2017-08-06T12:38:10.134Z,1524
2017-08-06T12:39:11.583Z,1536
2017-08-06T12:40:13.019Z,1748
2017-08-06T12:41:14.455Z,1952
2017-08-06T12:42:15.889Z,2028
2017-08-06T12:43:17.329Z,2184
2017-08-06T12:44:18.760Z,2232
2017-08-06T12:45:20.201Z,2228
2017-08-06T12:46:21.630Z,2504
2017-08-06T12:47:23.134Z,3216
2017-08-06T12:48:24.563Z,2348
2017-08-06T12:49:25.991Z,2492
2017-08-06T12:50:27.434Z,3168
2017-08-06T12:51:28.907Z,2916
2017-08-06T12:52:30.342Z,2136
2017-08-06T12:53:31.773Z,2180
2017-08-06T12:54:33.201Z,2460
2017-08-06T12:55:34.637Z,2704
2017-08-06T12:56:36.078Z,2664
2017-08-06T12:57:37.517Z,2556
2017-08-06T12:58:38.969Z,3068
2017-08-06T12:59:40.404Z,2468
2017-08-06T13:00:41.833Z,2884
2017-08-06T13:01:43.339Z,2908
2017-08-06T13:02:44.815Z,2884
2017-08-06T13:03:46.254Z,2656
2017-08-06T13:04:47.692Z,2364
2017-08-06T13:05:49.150Z,2232
2017-08-06T13:06:50.590Z,2352
2017-08-06T13:07:52.030Z,2496
2017-08-06T13:08:53.465Z,2892
2017-08-06T13:09:54.916Z,2944
2017-08-06T13:10:56.351Z,2640
2017-08-06T13:11:57.776Z,2724
2017-08-06T13:12:59.240Z,2956
2017-08-06T13:14:00.698Z,3080
2017-08-06T13:15:02.123Z,3108
2017-08-06T13:16:03.558Z,2380
2017-08-06T13:17:05.025Z,2324
2017-08-06T13:18:06.458Z,2408
2017-08-06T13:19:07.897Z,2492
2017-08-06T13:20:09.335Z,2540
2017-08-06T13:21:10.771Z,2304
2017-08-06T13:22:12.202Z,2456
2017-08-06T13:23:13.632Z,2616
2017-08-06T13:24:15.084Z,2628
2017-08-06T13:25:16.518Z,2496
2017-08-06T13:26:17.950Z,2376
2017-08-06T13:27:19.459Z,2808
2017-08-06T13:28:20.913Z,2728
2017-08-06T13:29:22.322Z,2512
2017-08-06T13:30:23.751Z,2152
2017-08-06T13:31:25.191Z,2208
2017-08-06T13:32:26.681Z,2172
2017-08-06T13:33:28.115Z,2332
2017-08-06T13:34:29.550Z,2408
2017-08-06T13:35:31.025Z,1880
2017-08-06T13:36:32.464Z,2124
2017-08-06T13:37:33.903Z,2724
2017-08-06T13:38:35.392Z,2568
2017-08-06T13:39:36.832Z,2340
2017-08-06T13:40:38.264Z,2336
2017-08-06T13:41:39.698Z,2288
2017-08-06T13:42:41.133Z,2120
2017-08-06T13:43:42.583Z,2212
2017-08-06T13:44:44.019Z,2080
2017-08-06T13:45:45.455Z,2160
2017-08-06T13:46:46.922Z,2500
2017-08-06T13:47:48.354Z,2964
2017-08-06T13:48:49.784Z,3992
2017-08-06T13:49:51.216Z,2848
2017-08-06T13:50:52.653Z,2748
2017-08-06T13:51:54.092Z,7292
2017-08-06T13:52:55.526Z,2744
2017-08-06T13:53:57.024Z,2500
2017-08-06T13:54:58.468Z,2868
2017-08-06T13:55:59.898Z,3236
2017-08-06T13:57:01.336Z,2684
2017-08-06T13:58:02.762Z,2524
2017-08-06T13:59:04.202Z,2380
2017-08-06T14:00:05.657Z,2508
2017-08-06T14:01:07.101Z,2492
2017-08-06T14:02:08.532Z,2372
2017-08-06T14:03:09.964Z,2432
2017-08-06T14:04:11.400Z,2284
2017-08-06T14:05:12.834Z,2536
2017-08-06T14:06:14.268Z,2968
2017-08-06T14:07:15.718Z,2612
2017-08-06T14:08:17.152Z,2252
2017-08-06T14:09:18.602Z,1892
2017-08-06T14:10:20.030Z,1648
2017-08-06T14:11:21.466Z,1880